sensor_id;sensor_type;location;lat;lon;timestamp;temperature;humidity
51837;DHT22;38941;53.254;6.600;2023-12-28T00:00:54;9.40;99.90
51837;DHT22;38941;53.254;6.600;2023-12-28T00:02:54;9.50;99.90
51837;DHT22;38941;53.254;6.600;2023-12-28T00:04:55;9.40;99.90
51837;DHT22;38941;53.254;6.600;2023-12-28T00:06:56;9.20;99.90
51837;DHT22;38941;53.254;6.600;2023-12-28T00:08:56;10.10;99.90
51837;DHT22;38941;53.254;6.600;2023-12-28T00:10:58;10.30;99.90
51837;DHT22;38941;53.254;6.600;2023-12-28T00:12:59;10.20;99.90
51837;DHT22;38941;53.254;6.600;2023-12-28T00:14:59;9.40;99.90
51837;DHT22;38941;53.254;6.600;2023-12-28T00:17:01;9.40;99.90
51837;DHT22;38941;53.254;6.600;2023-12-28T00:19:03;9.30;99.90
51837;DHT22;38941;53.254;6.600;2023-12-28T00:21:04;9.80;99.90
51837;DHT22;38941;53.254;6.600;2023-12-28T00:23:05;9.60;99.90
51837;DHT22;38941;53.254;6.600;2023-12-28T00:25:06;9.40;99.90
51837;DHT22;38941;53.254;6.600;2023-12-28T00:27:07;9.30;99.90
51837;DHT22;38941;53.254;6.600;2023-12-28T00:29:09;10.00;99.90
51837;DHT22;38941;53.254;6.600;2023-12-28T00:31:10;8.30;99.90
51837;DHT22;38941;53.254;6.600;2023-12-28T00:33:10;9.40;99.90
51837;DHT22;38941;53.254;6.600;2023-12-28T00:35:11;9.40;99.90
51837;DHT22;38941;53.254;6.600;2023-12-28T00:37:13;9.80;99.90
51837;DHT22;38941;53.254;6.600;2023-12-28T00:39:13;10.00;99.90
51837;DHT22;38941;53.254;6.600;2023-12-28T00:41:15;9.30;99.90
51837;DHT22;38941;53.254;6.600;2023-12-28T00:43:17;9.80;99.90
51837;DHT22;38941;53.254;6.600;2023-12-28T00:45:18;9.40;99.90
51837;DHT22;38941;53.254;6.600;2023-12-28T00:47:19;10.00;99.90
51837;DHT22;38941;53.254;6.600;2023-12-28T00:49:21;9.90;99.90
51837;DHT22;38941;53.254;6.600;2023-12-28T00:51:21;9.80;99.90
51837;DHT22;38941;53.254;6.600;2023-12-28T00:53:22;9.30;99.90
51837;DHT22;38941;53.254;6.600;2023-12-28T00:55:23;10.00;99.90
51837;DHT22;38941;53.254;6.600;2023-12-28T00:57:23;10.50;99.90
51837;DHT22;38941;53.254;6.600;2023-12-28T00:59:24;9.40;99.90
51837;DHT22;38941;53.254;6.600;2023-12-28T01:01:25;10.00;99.90
51837;DHT22;38941;53.254;6.600;2023-12-28T01:03:25;9.20;99.90
51837;DHT22;38941;53.254;6.600;2023-12-28T01:05:26;10.00;99.90
51837;DHT22;38941;53.254;6.600;2023-12-28T01:07:28;9.40;99.90
51837;DHT22;38941;53.254;6.600;2023-12-28T01:09:30;9.90;99.90
51837;DHT22;38941;53.254;6.600;2023-12-28T01:11:32;10.00;99.90
51837;DHT22;38941;53.254;6.600;2023-12-28T01:13:33;9.70;99.90
51837;DHT22;38941;53.254;6.600;2023-12-28T01:15:36;9.40;99.90
51837;DHT22;38941;53.254;6.600;2023-12-28T01:17:37;9.40;99.90
51837;DHT22;38941;53.254;6.600;2023-12-28T01:19:38;10.40;99.90
51837;DHT22;38941;53.254;6.600;2023-12-28T01:21:39;9.40;99.90
51837;DHT22;38941;53.254;6.600;2023-12-28T01:23:40;8.90;99.90
51837;DHT22;38941;53.254;6.600;2023-12-28T01:25:41;10.20;99.90
51837;DHT22;38941;53.254;6.600;2023-12-28T01:27:42;9.10;99.90
51837;DHT22;38941;53.254;6.600;2023-12-28T01:29:42;9.50;99.90
51837;DHT22;38941;53.254;6.600;2023-12-28T01:31:43;10.30;99.90
51837;DHT22;38941;53.254;6.600;2023-12-28T01:33:44;9.60;99.90
51837;DHT22;38941;53.254;6.600;2023-12-28T01:35:44;10.30;99.90
51837;DHT22;38941;53.254;6.600;2023-12-28T01:37:45;9.00;99.90
51837;DHT22;38941;53.254;6.600;2023-12-28T01:39:45;9.40;99.90
51837;DHT22;38941;53.254;6.600;2023-12-28T01:41:46;10.10;99.90
51837;DHT22;38941;53.254;6.600;2023-12-28T01:43:48;9.80;99.90
51837;DHT22;38941;53.254;6.600;2023-12-28T01:45:49;9.30;99.90
51837;DHT22;38941;53.254;6.600;2023-12-28T01:47:50;9.30;99.90
51837;DHT22;38941;53.254;6.600;2023-12-28T01:49:54;9.60;99.90
51837;DHT22;38941;53.254;6.600;2023-12-28T01:51:57;9.40;99.90
51837;DHT22;38941;53.254;6.600;2023-12-28T01:53:58;9.90;99.90
51837;DHT22;38941;53.254;6.600;2023-12-28T01:55:59;9.90;99.90
51837;DHT22;38941;53.254;6.600;2023-12-28T01:58:01;9.30;99.90
51837;DHT22;38941;53.254;6.600;2023-12-28T02:00:03;9.30;99.90
51837;DHT22;38941;53.254;6.600;2023-12-28T02:02:04;9.30;99.90
51837;DHT22;38941;53.254;6.600;2023-12-28T02:04:06;9.30;99.90
51837;DHT22;38941;53.254;6.600;2023-12-28T02:06:07;9.30;99.90
51837;DHT22;38941;53.254;6.600;2023-12-28T02:08:08;9.30;99.90
51837;DHT22;38941;53.254;6.600;2023-12-28T02:10:08;10.10;99.90
51837;DHT22;38941;53.254;6.600;2023-12-28T02:12:09;9.30;99.90
51837;DHT22;38941;53.254;6.600;2023-12-28T02:14:11;10.30;99.90
51837;DHT22;38941;53.254;6.600;2023-12-28T02:16:13;9.30;99.90
51837;DHT22;38941;53.254;6.600;2023-12-28T02:18:22;9.30;99.90
51837;DHT22;38941;53.254;6.600;2023-12-28T02:20:25;9.30;99.90
51837;DHT22;38941;53.254;6.600;2023-12-28T02:22:29;9.40;99.90
51837;DHT22;38941;53.254;6.600;2023-12-28T02:24:30;9.30;99.90
51837;DHT22;38941;53.254;6.600;2023-12-28T02:26:30;9.30;99.90
51837;DHT22;38941;53.254;6.600;2023-12-28T02:28:31;9.30;99.90
51837;DHT22;38941;53.254;6.600;2023-12-28T02:30:32;9.40;99.90
51837;DHT22;38941;53.254;6.600;2023-12-28T02:32:54;9.50;99.90
51837;DHT22;38941;53.254;6.600;2023-12-28T02:35:03;9.30;99.90
51837;DHT22;38941;53.254;6.600;2023-12-28T02:37:08;10.00;99.90
51837;DHT22;38941;53.254;6.600;2023-12-28T02:39:12;9.30;99.90
51837;DHT22;38941;53.254;6.600;2023-12-28T02:41:15;9.30;99.90
51837;DHT22;38941;53.254;6.600;2023-12-28T02:43:17;9.30;99.90
51837;DHT22;38941;53.254;6.600;2023-12-28T02:45:19;9.80;99.90
51837;DHT22;38941;53.254;6.600;2023-12-28T02:47:22;9.30;99.90
51837;DHT22;38941;53.254;6.600;2023-12-28T02:49:22;9.60;99.90
51837;DHT22;38941;53.254;6.600;2023-12-28T02:51:23;9.50;99.90
51837;DHT22;38941;53.254;6.600;2023-12-28T02:53:24;9.50;99.90
51837;DHT22;38941;53.254;6.600;2023-12-28T02:55:24;9.40;99.90
51837;DHT22;38941;53.254;6.600;2023-12-28T02:57:27;9.30;99.90
51837;DHT22;38941;53.254;6.600;2023-12-28T02:59:28;10.60;99.90
51837;DHT22;38941;53.254;6.600;2023-12-28T03:01:28;9.40;99.90
51837;DHT22;38941;53.254;6.600;2023-12-28T03:03:29;9.80;99.90
51837;DHT22;38941;53.254;6.600;2023-12-28T03:05:30;10.70;99.90
51837;DHT22;38941;53.254;6.600;2023-12-28T03:07:30;9.20;99.90
51837;DHT22;38941;53.254;6.600;2023-12-28T03:09:31;10.30;99.90
51837;DHT22;38941;53.254;6.600;2023-12-28T03:11:32;9.50;99.90
51837;DHT22;38941;53.254;6.600;2023-12-28T03:13:32;9.60;99.90
51837;DHT22;38941;53.254;6.600;2023-12-28T03:15:33;10.00;99.90
51837;DHT22;38941;53.254;6.600;2023-12-28T03:17:34;9.60;99.90
51837;DHT22;38941;53.254;6.600;2023-12-28T03:19:37;10.70;99.90
51837;DHT22;38941;53.254;6.600;2023-12-28T03:21:40;9.70;99.90
51837;DHT22;38941;53.254;6.600;2023-12-28T03:23:41;9.70;99.90
51837;DHT22;38941;53.254;6.600;2023-12-28T03:25:41;10.50;99.90
51837;DHT22;38941;53.254;6.600;2023-12-28T03:27:42;10.30;99.90
51837;DHT22;38941;53.254;6.600;2023-12-28T03:29:43;9.70;99.90
51837;DHT22;38941;53.254;6.600;2023-12-28T03:31:43;9.80;99.90
51837;DHT22;38941;53.254;6.600;2023-12-28T03:33:44;10.50;99.90
51837;DHT22;38941;53.254;6.600;2023-12-28T03:35:45;9.90;99.90
51837;DHT22;38941;53.254;6.600;2023-12-28T03:37:45;10.00;99.90
51837;DHT22;38941;53.254;6.600;2023-12-28T03:39:46;9.90;99.90
51837;DHT22;38941;53.254;6.600;2023-12-28T03:41:47;9.90;99.90
51837;DHT22;38941;53.254;6.600;2023-12-28T03:43:48;10.60;99.90
51837;DHT22;38941;53.254;6.600;2023-12-28T03:45:49;10.30;99.90
51837;DHT22;38941;53.254;6.600;2023-12-28T03:47:51;10.10;99.90
51837;DHT22;38941;53.254;6.600;2023-12-28T03:49:51;10.00;99.90
51837;DHT22;38941;53.254;6.600;2023-12-28T03:51:52;10.10;99.90
51837;DHT22;38941;53.254;6.600;2023-12-28T03:53:53;10.90;99.90
51837;DHT22;38941;53.254;6.600;2023-12-28T03:55:53;10.80;99.90
51837;DHT22;38941;53.254;6.600;2023-12-28T03:57:54;10.10;99.90
51837;DHT22;38941;53.254;6.600;2023-12-28T03:59:55;10.60;99.90
51837;DHT22;38941;53.254;6.600;2023-12-28T04:01:57;10.70;99.90
51837;DHT22;38941;53.254;6.600;2023-12-28T04:03:57;10.80;99.90
51837;DHT22;38941;53.254;6.600;2023-12-28T04:05:58;10.10;99.90
51837;DHT22;38941;53.254;6.600;2023-12-28T04:07:58;10.10;99.90
51837;DHT22;38941;53.254;6.600;2023-12-28T04:10:00;11.10;99.90
51837;DHT22;38941;53.254;6.600;2023-12-28T04:12:01;10.10;99.90
51837;DHT22;38941;53.254;6.600;2023-12-28T04:14:02;10.10;99.90
51837;DHT22;38941;53.254;6.600;2023-12-28T04:16:04;10.50;99.90
51837;DHT22;38941;53.254;6.600;2023-12-28T04:18:05;10.20;99.90
51837;DHT22;38941;53.254;6.600;2023-12-28T04:20:06;10.20;99.90
51837;DHT22;38941;53.254;6.600;2023-12-28T04:22:07;10.20;99.90
51837;DHT22;38941;53.254;6.600;2023-12-28T04:24:11;10.20;99.90
51837;DHT22;38941;53.254;6.600;2023-12-28T04:26:11;10.30;99.90
51837;DHT22;38941;53.254;6.600;2023-12-28T04:28:13;10.40;99.90
51837;DHT22;38941;53.254;6.600;2023-12-28T04:30:14;10.30;99.90
51837;DHT22;38941;53.254;6.600;2023-12-28T04:32:14;10.30;99.90
51837;DHT22;38941;53.254;6.600;2023-12-28T04:34:15;10.20;99.90
51837;DHT22;38941;53.254;6.600;2023-12-28T04:36:16;10.20;99.90
51837;DHT22;38941;53.254;6.600;2023-12-28T04:38:18;10.30;99.90
51837;DHT22;38941;53.254;6.600;2023-12-28T04:40:19;10.70;99.90
51837;DHT22;38941;53.254;6.600;2023-12-28T04:42:20;10.40;99.90
51837;DHT22;38941;53.254;6.600;2023-12-28T04:44:20;10.40;99.90
51837;DHT22;38941;53.254;6.600;2023-12-28T04:46:21;10.30;99.90
51837;DHT22;38941;53.254;6.600;2023-12-28T04:48:22;10.60;99.90
51837;DHT22;38941;53.254;6.600;2023-12-28T04:50:26;10.30;99.90
51837;DHT22;38941;53.254;6.600;2023-12-28T04:52:26;10.60;99.90
51837;DHT22;38941;53.254;6.600;2023-12-28T04:54:27;10.80;99.90
51837;DHT22;38941;53.254;6.600;2023-12-28T04:56:29;10.60;99.90
51837;DHT22;38941;53.254;6.600;2023-12-28T04:58:29;10.40;99.90
51837;DHT22;38941;53.254;6.600;2023-12-28T05:00:31;10.40;99.90
51837;DHT22;38941;53.254;6.600;2023-12-28T05:02:31;11.00;99.90
51837;DHT22;38941;53.254;6.600;2023-12-28T05:04:32;10.40;99.90
51837;DHT22;38941;53.254;6.600;2023-12-28T05:06:33;10.40;99.90
51837;DHT22;38941;53.254;6.600;2023-12-28T05:08:34;11.10;99.90
51837;DHT22;38941;53.254;6.600;2023-12-28T05:10:34;10.50;99.90
51837;DHT22;38941;53.254;6.600;2023-12-28T05:12:35;11.00;99.90
51837;DHT22;38941;53.254;6.600;2023-12-28T05:14:36;10.50;99.90
51837;DHT22;38941;53.254;6.600;2023-12-28T05:16:38;10.60;99.90
51837;DHT22;38941;53.254;6.600;2023-12-28T05:18:38;11.20;99.90
51837;DHT22;38941;53.254;6.600;2023-12-28T05:20:39;11.00;99.90
51837;DHT22;38941;53.254;6.600;2023-12-28T05:22:40;10.50;99.90
51837;DHT22;38941;53.254;6.600;2023-12-28T05:24:40;10.20;99.90
51837;DHT22;38941;53.254;6.600;2023-12-28T05:26:41;10.40;99.90
51837;DHT22;38941;53.254;6.600;2023-12-28T05:28:41;10.50;99.90
51837;DHT22;38941;53.254;6.600;2023-12-28T05:30:42;10.50;99.90
51837;DHT22;38941;53.254;6.600;2023-12-28T05:32:43;10.40;99.90
51837;DHT22;38941;53.254;6.600;2023-12-28T05:34:43;10.50;99.90
51837;DHT22;38941;53.254;6.600;2023-12-28T05:36:44;10.90;99.90
51837;DHT22;38941;53.254;6.600;2023-12-28T05:38:47;10.40;99.90
51837;DHT22;38941;53.254;6.600;2023-12-28T05:40:47;11.00;99.90
51837;DHT22;38941;53.254;6.600;2023-12-28T05:42:49;10.40;99.90
51837;DHT22;38941;53.254;6.600;2023-12-28T05:44:49;11.00;99.90
51837;DHT22;38941;53.254;6.600;2023-12-28T05:46:50;10.40;99.90
51837;DHT22;38941;53.254;6.600;2023-12-28T05:48:52;11.10;99.90
51837;DHT22;38941;53.254;6.600;2023-12-28T05:50:53;10.70;99.90
51837;DHT22;38941;53.254;6.600;2023-12-28T05:52:53;11.00;99.90
51837;DHT22;38941;53.254;6.600;2023-12-28T05:54:55;10.70;99.90
51837;DHT22;38941;53.254;6.600;2023-12-28T05:56:57;10.50;99.90
51837;DHT22;38941;53.254;6.600;2023-12-28T05:58:59;11.30;99.90
51837;DHT22;38941;53.254;6.600;2023-12-28T06:01:00;10.70;99.90
51837;DHT22;38941;53.254;6.600;2023-12-28T06:03:04;11.30;99.90
51837;DHT22;38941;53.254;6.600;2023-12-28T06:05:04;10.60;99.90
51837;DHT22;38941;53.254;6.600;2023-12-28T06:07:05;10.60;99.90
51837;DHT22;38941;53.254;6.600;2023-12-28T06:09:06;11.60;99.90
51837;DHT22;38941;53.254;6.600;2023-12-28T06:11:08;11.40;99.90
51837;DHT22;38941;53.254;6.600;2023-12-28T06:13:09;11.10;99.90
51837;DHT22;38941;53.254;6.600;2023-12-28T06:17:11;11.30;99.90
51837;DHT22;38941;53.254;6.600;2023-12-28T06:19:11;10.50;99.90
51837;DHT22;38941;53.254;6.600;2023-12-28T06:21:13;10.70;99.90
51837;DHT22;38941;53.254;6.600;2023-12-28T06:23:13;10.20;99.90
51837;DHT22;38941;53.254;6.600;2023-12-28T06:25:14;10.50;99.90
51837;DHT22;38941;53.254;6.600;2023-12-28T06:27:15;10.80;99.90
51837;DHT22;38941;53.254;6.600;2023-12-28T06:29:16;10.40;99.90
51837;DHT22;38941;53.254;6.600;2023-12-28T06:31:17;10.50;99.90
51837;DHT22;38941;53.254;6.600;2023-12-28T06:35:20;10.40;99.90
51837;DHT22;38941;53.254;6.600;2023-12-28T06:37:20;10.80;99.90
51837;DHT22;38941;53.254;6.600;2023-12-28T06:39:22;10.60;99.90
51837;DHT22;38941;53.254;6.600;2023-12-28T06:41:24;10.70;99.90
51837;DHT22;38941;53.254;6.600;2023-12-28T06:43:26;10.60;99.90
51837;DHT22;38941;53.254;6.600;2023-12-28T06:45:27;11.50;99.90
51837;DHT22;38941;53.254;6.600;2023-12-28T06:47:28;11.40;99.90
51837;DHT22;38941;53.254;6.600;2023-12-28T06:49:29;10.60;99.90
51837;DHT22;38941;53.254;6.600;2023-12-28T06:51:29;10.60;99.90
51837;DHT22;38941;53.254;6.600;2023-12-28T06:53:30;10.60;99.90
51837;DHT22;38941;53.254;6.600;2023-12-28T06:55:31;10.60;99.90
51837;DHT22;38941;53.254;6.600;2023-12-28T06:57:32;11.10;99.90
51837;DHT22;38941;53.254;6.600;2023-12-28T06:59:33;10.70;99.90
51837;DHT22;38941;53.254;6.600;2023-12-28T07:01:33;10.60;99.90
51837;DHT22;38941;53.254;6.600;2023-12-28T07:03:35;11.00;99.90
51837;DHT22;38941;53.254;6.600;2023-12-28T07:05:36;10.60;99.90
51837;DHT22;38941;53.254;6.600;2023-12-28T07:07:38;11.20;99.90
51837;DHT22;38941;53.254;6.600;2023-12-28T07:09:39;10.70;99.90
51837;DHT22;38941;53.254;6.600;2023-12-28T07:11:39;10.90;99.90
51837;DHT22;38941;53.254;6.600;2023-12-28T07:13:40;11.60;99.90
51837;DHT22;38941;53.254;6.600;2023-12-28T07:15:41;10.70;99.90
51837;DHT22;38941;53.254;6.600;2023-12-28T07:17:41;10.80;99.90
51837;DHT22;38941;53.254;6.600;2023-12-28T07:19:42;11.00;99.90
51837;DHT22;38941;53.254;6.600;2023-12-28T07:21:43;10.70;99.90
51837;DHT22;38941;53.254;6.600;2023-12-28T07:23:43;11.20;99.90
51837;DHT22;38941;53.254;6.600;2023-12-28T07:25:49;10.70;99.90
51837;DHT22;38941;53.254;6.600;2023-12-28T07:27:50;11.10;99.90
51837;DHT22;38941;53.254;6.600;2023-12-28T07:29:50;10.70;99.90
51837;DHT22;38941;53.254;6.600;2023-12-28T07:31:51;10.70;99.90
51837;DHT22;38941;53.254;6.600;2023-12-28T07:33:53;10.70;99.90
51837;DHT22;38941;53.254;6.600;2023-12-28T07:35:54;10.70;99.90
51837;DHT22;38941;53.254;6.600;2023-12-28T07:37:55;10.80;99.90
51837;DHT22;38941;53.254;6.600;2023-12-28T07:39:55;11.00;99.90
51837;DHT22;38941;53.254;6.600;2023-12-28T07:41:57;10.60;99.90
51837;DHT22;38941;53.254;6.600;2023-12-28T07:43:58;10.70;99.90
51837;DHT22;38941;53.254;6.600;2023-12-28T07:46:00;10.70;99.90
51837;DHT22;38941;53.254;6.600;2023-12-28T07:48:01;11.60;99.90
51837;DHT22;38941;53.254;6.600;2023-12-28T07:50:02;10.70;99.90
51837;DHT22;38941;53.254;6.600;2023-12-28T07:52:03;10.70;99.90
51837;DHT22;38941;53.254;6.600;2023-12-28T07:54:04;10.80;99.90
51837;DHT22;38941;53.254;6.600;2023-12-28T07:56:05;11.10;99.90
51837;DHT22;38941;53.254;6.600;2023-12-28T07:58:06;10.80;99.90
51837;DHT22;38941;53.254;6.600;2023-12-28T08:00:07;10.80;99.90
51837;DHT22;38941;53.254;6.600;2023-12-28T08:02:08;10.80;99.90
51837;DHT22;38941;53.254;6.600;2023-12-28T08:04:09;11.40;99.90
51837;DHT22;38941;53.254;6.600;2023-12-28T08:06:09;10.80;99.90
51837;DHT22;38941;53.254;6.600;2023-12-28T08:08:13;10.80;99.90
51837;DHT22;38941;53.254;6.600;2023-12-28T08:10:13;10.80;99.90
51837;DHT22;38941;53.254;6.600;2023-12-28T08:12:14;10.90;99.90
51837;DHT22;38941;53.254;6.600;2023-12-28T08:14:16;10.70;99.90
51837;DHT22;38941;53.254;6.600;2023-12-28T08:16:16;10.60;99.90
51837;DHT22;38941;53.254;6.600;2023-12-28T08:18:18;11.00;99.90
51837;DHT22;38941;53.254;6.600;2023-12-28T08:20:19;11.70;99.90
51837;DHT22;38941;53.254;6.600;2023-12-28T08:22:20;11.40;99.90
51837;DHT22;38941;53.254;6.600;2023-12-28T08:24:21;11.50;99.90
51837;DHT22;38941;53.254;6.600;2023-12-28T08:26:22;11.00;99.90
51837;DHT22;38941;53.254;6.600;2023-12-28T08:28:23;12.10;99.90
51837;DHT22;38941;53.254;6.600;2023-12-28T08:30:24;11.00;99.90
51837;DHT22;38941;53.254;6.600;2023-12-28T08:32:26;11.00;99.90
51837;DHT22;38941;53.254;6.600;2023-12-28T08:34:27;11.00;99.90
51837;DHT22;38941;53.254;6.600;2023-12-28T08:36:28;11.00;99.90
51837;DHT22;38941;53.254;6.600;2023-12-28T08:38:29;11.40;99.90
51837;DHT22;38941;53.254;6.600;2023-12-28T08:40:30;11.10;99.90
51837;DHT22;38941;53.254;6.600;2023-12-28T08:42:30;11.10;99.90
51837;DHT22;38941;53.254;6.600;2023-12-28T08:44:32;11.30;99.90
51837;DHT22;38941;53.254;6.600;2023-12-28T08:46:34;11.10;99.90
51837;DHT22;38941;53.254;6.600;2023-12-28T08:48:34;11.10;99.90
51837;DHT22;38941;53.254;6.600;2023-12-28T08:50:35;11.10;99.90
51837;DHT22;38941;53.254;6.600;2023-12-28T08:52:36;11.10;99.90
51837;DHT22;38941;53.254;6.600;2023-12-28T08:54:36;11.40;99.90
51837;DHT22;38941;53.254;6.600;2023-12-28T08:56:38;11.10;99.90
51837;DHT22;38941;53.254;6.600;2023-12-28T08:58:39;11.00;99.90
51837;DHT22;38941;53.254;6.600;2023-12-28T09:00:40;11.20;99.90
51837;DHT22;38941;53.254;6.600;2023-12-28T09:02:41;11.80;99.90
51837;DHT22;38941;53.254;6.600;2023-12-28T09:04:42;11.10;99.90
51837;DHT22;38941;53.254;6.600;2023-12-28T09:06:43;10.50;99.90
51837;DHT22;38941;53.254;6.600;2023-12-28T09:08:45;11.10;99.90
51837;DHT22;38941;53.254;6.600;2023-12-28T09:10:47;11.20;99.90
51837;DHT22;38941;53.254;6.600;2023-12-28T09:12:48;11.50;99.90
51837;DHT22;38941;53.254;6.600;2023-12-28T09:14:49;11.20;99.90
51837;DHT22;38941;53.254;6.600;2023-12-28T09:16:52;11.20;99.90
51837;DHT22;38941;53.254;6.600;2023-12-28T09:18:53;11.20;99.90
51837;DHT22;38941;53.254;6.600;2023-12-28T09:20:55;11.30;99.90
51837;DHT22;38941;53.254;6.600;2023-12-28T09:22:55;11.20;99.90
51837;DHT22;38941;53.254;6.600;2023-12-28T09:24:56;11.20;99.90
51837;DHT22;38941;53.254;6.600;2023-12-28T09:26:57;11.20;99.90
51837;DHT22;38941;53.254;6.600;2023-12-28T09:28:57;11.30;99.90
51837;DHT22;38941;53.254;6.600;2023-12-28T09:30:59;11.20;99.90
51837;DHT22;38941;53.254;6.600;2023-12-28T09:33:01;11.20;99.90
51837;DHT22;38941;53.254;6.600;2023-12-28T09:35:02;11.40;99.90
51837;DHT22;38941;53.254;6.600;2023-12-28T09:37:03;11.20;99.90
51837;DHT22;38941;53.254;6.600;2023-12-28T09:39:04;11.20;99.90
51837;DHT22;38941;53.254;6.600;2023-12-28T09:41:13;11.30;99.90
51837;DHT22;38941;53.254;6.600;2023-12-28T09:43:27;12.60;99.90
51837;DHT22;38941;53.254;6.600;2023-12-28T09:45:30;12.10;99.90
51837;DHT22;38941;53.254;6.600;2023-12-28T09:47:32;11.40;99.90
51837;DHT22;38941;53.254;6.600;2023-12-28T09:49:36;11.50;99.90
51837;DHT22;38941;53.254;6.600;2023-12-28T09:51:38;11.20;99.90
51837;DHT22;38941;53.254;6.600;2023-12-28T09:53:39;11.70;99.90
51837;DHT22;38941;53.254;6.600;2023-12-28T09:55:40;11.40;99.90
51837;DHT22;38941;53.254;6.600;2023-12-28T09:57:42;11.20;99.90
51837;DHT22;38941;53.254;6.600;2023-12-28T09:59:43;11.20;99.90
51837;DHT22;38941;53.254;6.600;2023-12-28T10:01:46;11.20;99.90
51837;DHT22;38941;53.254;6.600;2023-12-28T10:03:47;11.20;99.90
51837;DHT22;38941;53.254;6.600;2023-12-28T10:05:48;11.10;99.90
51837;DHT22;38941;53.254;6.600;2023-12-28T10:07:50;11.40;99.90
51837;DHT22;38941;53.254;6.600;2023-12-28T10:09:51;11.20;99.90
51837;DHT22;38941;53.254;6.600;2023-12-28T10:11:53;11.10;99.90
51837;DHT22;38941;53.254;6.600;2023-12-28T10:13:55;11.10;99.90
51837;DHT22;38941;53.254;6.600;2023-12-28T10:15:59;11.10;99.90
51837;DHT22;38941;53.254;6.600;2023-12-28T10:17:59;11.10;99.90
51837;DHT22;38941;53.254;6.600;2023-12-28T10:20:01;11.20;99.90
51837;DHT22;38941;53.254;6.600;2023-12-28T10:22:05;11.30;99.90
51837;DHT22;38941;53.254;6.600;2023-12-28T10:24:06;11.50;99.90
51837;DHT22;38941;53.254;6.600;2023-12-28T10:26:07;11.10;99.90
51837;DHT22;38941;53.254;6.600;2023-12-28T10:28:10;10.90;99.90
51837;DHT22;38941;53.254;6.600;2023-12-28T10:30:12;11.00;99.90
51837;DHT22;38941;53.254;6.600;2023-12-28T10:32:13;11.20;99.90
51837;DHT22;38941;53.254;6.600;2023-12-28T10:34:15;11.40;99.90
51837;DHT22;38941;53.254;6.600;2023-12-28T10:36:16;11.00;99.90
51837;DHT22;38941;53.254;6.600;2023-12-28T10:38:17;11.50;99.90
51837;DHT22;38941;53.254;6.600;2023-12-28T10:40:20;12.00;99.90
51837;DHT22;38941;53.254;6.600;2023-12-28T10:44:49;11.10;99.90
51837;DHT22;38941;53.254;6.600;2023-12-28T10:46:55;10.90;99.90
51837;DHT22;38941;53.254;6.600;2023-12-28T10:49:31;11.00;99.90
51837;DHT22;38941;53.254;6.600;2023-12-28T10:51:25;11.20;99.90
51837;DHT22;38941;53.254;6.600;2023-12-28T10:55:43;11.20;99.90
51837;DHT22;38941;53.254;6.600;2023-12-28T10:57:51;11.20;99.90
51837;DHT22;38941;53.254;6.600;2023-12-28T11:02:15;11.20;99.90
51837;DHT22;38941;53.254;6.600;2023-12-28T11:04:44;11.50;99.90
51837;DHT22;38941;53.254;6.600;2023-12-28T11:06:48;11.20;99.90
51837;DHT22;38941;53.254;6.600;2023-12-28T11:08:51;11.30;99.90
51837;DHT22;38941;53.254;6.600;2023-12-28T11:10:54;11.20;99.90
51837;DHT22;38941;53.254;6.600;2023-12-28T11:12:56;11.60;99.90
51837;DHT22;38941;53.254;6.600;2023-12-28T11:14:57;11.20;99.90
51837;DHT22;38941;53.254;6.600;2023-12-28T11:16:59;11.60;99.90
51837;DHT22;38941;53.254;6.600;2023-12-28T11:19:04;11.30;99.90
51837;DHT22;38941;53.254;6.600;2023-12-28T11:21:05;12.00;99.90
51837;DHT22;38941;53.254;6.600;2023-12-28T11:23:07;11.70;99.90
51837;DHT22;38941;53.254;6.600;2023-12-28T11:25:17;11.00;99.90
51837;DHT22;38941;53.254;6.600;2023-12-28T11:27:19;11.40;99.90
51837;DHT22;38941;53.254;6.600;2023-12-28T11:29:21;11.10;99.90
51837;DHT22;38941;53.254;6.600;2023-12-28T11:31:22;11.20;99.90
51837;DHT22;38941;53.254;6.600;2023-12-28T11:33:23;11.20;99.90
51837;DHT22;38941;53.254;6.600;2023-12-28T11:35:38;11.20;99.90
51837;DHT22;38941;53.254;6.600;2023-12-28T11:37:41;11.50;99.90
51837;DHT22;38941;53.254;6.600;2023-12-28T11:39:43;11.20;99.90
51837;DHT22;38941;53.254;6.600;2023-12-28T11:41:44;11.20;99.90
51837;DHT22;38941;53.254;6.600;2023-12-28T11:43:54;11.20;99.90
51837;DHT22;38941;53.254;6.600;2023-12-28T11:45:55;11.80;99.90
51837;DHT22;38941;53.254;6.600;2023-12-28T11:47:59;11.20;99.90
51837;DHT22;38941;53.254;6.600;2023-12-28T11:50:07;11.20;99.90
51837;DHT22;38941;53.254;6.600;2023-12-28T11:52:09;11.20;99.90
51837;DHT22;38941;53.254;6.600;2023-12-28T11:54:11;11.00;99.90
51837;DHT22;38941;53.254;6.600;2023-12-28T11:56:15;11.10;99.90
51837;DHT22;38941;53.254;6.600;2023-12-28T11:58:17;11.10;99.90
51837;DHT22;38941;53.254;6.600;2023-12-28T12:00:18;11.20;99.90
51837;DHT22;38941;53.254;6.600;2023-12-28T12:02:20;11.10;99.90
51837;DHT22;38941;53.254;6.600;2023-12-28T12:04:21;11.00;99.90
51837;DHT22;38941;53.254;6.600;2023-12-28T12:06:22;11.00;99.90
51837;DHT22;38941;53.254;6.600;2023-12-28T12:08:24;11.10;99.90
51837;DHT22;38941;53.254;6.600;2023-12-28T12:10:25;11.20;99.90
51837;DHT22;38941;53.254;6.600;2023-12-28T12:12:26;11.10;99.90
51837;DHT22;38941;53.254;6.600;2023-12-28T12:14:27;11.00;99.90
51837;DHT22;38941;53.254;6.600;2023-12-28T12:16:29;11.20;99.90
51837;DHT22;38941;53.254;6.600;2023-12-28T12:18:30;11.10;99.90
51837;DHT22;38941;53.254;6.600;2023-12-28T12:20:31;11.10;99.90
51837;DHT22;38941;53.254;6.600;2023-12-28T12:22:32;11.00;99.90
51837;DHT22;38941;53.254;6.600;2023-12-28T12:24:33;11.00;99.90
51837;DHT22;38941;53.254;6.600;2023-12-28T12:26:36;11.10;99.90
51837;DHT22;38941;53.254;6.600;2023-12-28T12:28:36;11.40;99.90
51837;DHT22;38941;53.254;6.600;2023-12-28T12:30:38;10.90;99.90
51837;DHT22;38941;53.254;6.600;2023-12-28T12:32:40;11.30;99.90
51837;DHT22;38941;53.254;6.600;2023-12-28T12:34:44;10.60;99.90
51837;DHT22;38941;53.254;6.600;2023-12-28T12:36:46;10.90;99.90
51837;DHT22;38941;53.254;6.600;2023-12-28T12:38:48;10.80;99.90
51837;DHT22;38941;53.254;6.600;2023-12-28T12:40:52;11.10;99.90
51837;DHT22;38941;53.254;6.600;2023-12-28T12:42:54;10.90;99.90
51837;DHT22;38941;53.254;6.600;2023-12-28T12:44:55;11.00;99.90
51837;DHT22;38941;53.254;6.600;2023-12-28T12:47:02;11.60;99.90
51837;DHT22;38941;53.254;6.600;2023-12-28T12:49:02;11.00;99.90
51837;DHT22;38941;53.254;6.600;2023-12-28T12:51:04;10.90;99.90
51837;DHT22;38941;53.254;6.600;2023-12-28T12:53:05;11.00;99.90
51837;DHT22;38941;53.254;6.600;2023-12-28T12:55:06;11.00;99.90
51837;DHT22;38941;53.254;6.600;2023-12-28T12:57:10;11.00;99.90
51837;DHT22;38941;53.254;6.600;2023-12-28T12:59:11;11.00;99.90
51837;DHT22;38941;53.254;6.600;2023-12-28T13:01:16;11.00;99.90
51837;DHT22;38941;53.254;6.600;2023-12-28T13:03:17;11.10;99.90